Time;durP1;ratioP1;P1;durP2;ratioP2;P2;SDS_P1;SDS_P2;PMS_P1;PMS_P2;Temp;Humidity;BMP_temperature;BMP_pressure;BME280_temperature;BME280_humidity;BME280_pressure;Samples;Min_cycle;Max_cycle;Signal;HPM_P1;HPM_P2
2023/09/09 00:00:53;;;;;;;8.93;5.70;;;;;;;;;;4920056;29;20062;-86
2023/09/09 00:03:22;;;;;;;10.10;6.53;;;;;;;;;;4925828;29;20087;-86
2023/09/09 00:05:51;;;;;;;10.82;7.00;;;;;;;;;;4925372;29;20056;-86
2023/09/09 00:08:20;;;;;;;10.90;7.47;;;;;;;;;;4918904;29;20048;-85
2023/09/09 00:10:48;;;;;;;11.93;6.75;;;;;;;;;;4913482;29;20052;-84
2023/09/09 00:13:17;;;;;;;11.00;6.50;;;;;;;;;;4918765;29;20051;-84
2023/09/09 00:15:45;;;;;;;12.02;7.25;;;;;;;;;;4924940;29;20560;-86
2023/09/09 00:18:15;;;;;;;13.85;7.30;;;;;;;;;;4920162;29;20489;-85
2023/09/09 00:20:44;;;;;;;14.13;7.30;;;;;;;;;;4923271;28;20048;-86
2023/09/09 00:23:13;;;;;;;12.27;7.20;;;;;;;;;;4917676;29;20058;-86
2023/09/09 00:25:42;;;;;;;10.88;7.03;;;;;;;;;;4926753;29;20051;-87
2023/09/09 00:28:12;;;;;;;10.57;6.72;;;;;;;;;;4924550;29;20083;-86
2023/09/09 00:30:40;;;;;;;11.90;7.13;;;;;;;;;;4925146;28;20284;-86
2023/09/09 00:33:08;;;;;;;11.40;7.03;;;;;;;;;;4923087;29;20054;-85
2023/09/09 00:35:39;;;;;;;13.25;7.60;;;;;;;;;;4923840;29;20047;-86
2023/09/09 00:38:08;;;;;;;14.45;7.75;;;;;;;;;;4917470;29;20051;-84
2023/09/09 00:40:36;;;;;;;11.88;6.93;;;;;;;;;;4924088;28;20047;-86
2023/09/09 00:43:05;;;;;;;13.02;7.30;;;;;;;;;;4925202;29;20051;-85
2023/09/09 00:45:33;;;;;;;12.77;7.43;;;;;;;;;;4923943;29;20083;-86
2023/09/09 00:48:02;;;;;;;13.57;7.70;;;;;;;;;;4924899;29;20564;-86
2023/09/09 00:50:30;;;;;;;11.88;7.53;;;;;;;;;;4923779;29;20044;-87
2023/09/09 00:53:00;;;;;;;13.75;7.85;;;;;;;;;;4919992;29;20051;-86
2023/09/09 00:55:30;;;;;;;14.70;7.80;;;;;;;;;;4915805;29;20051;-85
2023/09/09 00:57:58;;;;;;;14.40;7.60;;;;;;;;;;4920669;29;20476;-86
2023/09/09 01:00:27;;;;;;;12.35;8.00;;;;;;;;;;4923923;28;21173;-87
2023/09/09 01:02:55;;;;;;;15.80;8.43;;;;;;;;;;4925562;29;20481;-86
2023/09/09 01:05:24;;;;;;;13.65;7.40;;;;;;;;;;4911769;29;20059;-86
2023/09/09 01:07:53;;;;;;;13.60;7.28;;;;;;;;;;4924260;29;20593;-85
2023/09/09 01:10:23;;;;;;;11.85;7.35;;;;;;;;;;4923506;29;20044;-86
2023/09/09 01:12:52;;;;;;;13.10;7.47;;;;;;;;;;4924940;29;20064;-86
2023/09/09 01:15:20;;;;;;;13.48;8.30;;;;;;;;;;4922027;29;20052;-86
2023/09/09 01:17:49;;;;;;;17.65;7.90;;;;;;;;;;4924477;29;20108;-86
2023/09/09 01:20:20;;;;;;;14.07;7.57;;;;;;;;;;4915176;28;20351;-85
2023/09/09 01:22:50;;;;;;;13.30;7.72;;;;;;;;;;4922516;29;20048;-86
2023/09/09 01:25:18;;;;;;;12.13;8.13;;;;;;;;;;4922284;29;20130;-86
2023/09/09 01:27:47;;;;;;;14.25;8.57;;;;;;;;;;4920060;29;20044;-87
2023/09/09 01:35:49;;;;;;;14.40;7.70;;;;;;;;;;4928868;23;20055;-66
2023/09/09 01:38:19;;;;;;;13.73;8.77;;;;;;;;;;4903707;29;20056;-65
2023/09/09 01:40:48;;;;;;;14.32;7.78;;;;;;;;;;4900431;29;20083;-65
2023/09/09 01:43:16;;;;;;;15.02;8.13;;;;;;;;;;4905615;29;20080;-72
2023/09/09 01:45:45;;;;;;;13.43;8.32;;;;;;;;;;4899515;29;20167;-75
2023/09/09 01:48:13;;;;;;;13.63;8.60;;;;;;;;;;4913043;29;20052;-71
2023/09/09 01:50:41;;;;;;;14.77;8.38;;;;;;;;;;4908396;29;20045;-65
2023/09/09 01:53:10;;;;;;;15.60;8.15;;;;;;;;;;4899472;29;20052;-69
2023/09/09 01:55:40;;;;;;;17.77;9.35;;;;;;;;;;4909851;29;20439;-68
2023/09/09 01:58:08;;;;;;;18.13;8.98;;;;;;;;;;4910671;29;20159;-69
2023/09/09 02:00:36;;;;;;;13.10;8.15;;;;;;;;;;4905276;29;20131;-65
2023/09/09 02:03:05;;;;;;;15.77;8.65;;;;;;;;;;4910366;29;20040;-64
2023/09/09 02:05:35;;;;;;;14.88;8.68;;;;;;;;;;4908957;29;20186;-69
2023/09/09 02:08:03;;;;;;;13.50;8.30;;;;;;;;;;4907094;29;20589;-67
2023/09/09 02:10:32;;;;;;;19.52;8.75;;;;;;;;;;4909197;29;20122;-68
2023/09/09 02:13:02;;;;;;;14.88;8.98;;;;;;;;;;4906172;29;20056;-65
2023/09/09 02:15:30;;;;;;;15.40;9.52;;;;;;;;;;4906140;29;20128;-68
2023/09/09 02:17:58;;;;;;;17.75;8.73;;;;;;;;;;4909113;29;20055;-73
2023/09/09 02:20:27;;;;;;;14.73;8.70;;;;;;;;;;4908552;29;20059;-67
2023/09/09 02:22:55;;;;;;;18.00;9.52;;;;;;;;;;4909790;29;20104;-68
2023/09/09 02:25:23;;;;;;;15.68;9.05;;;;;;;;;;4909187;29;20127;-64
2023/09/09 02:27:52;;;;;;;16.50;8.75;;;;;;;;;;4910369;29;20040;-65
2023/09/09 02:30:22;;;;;;;15.68;9.43;;;;;;;;;;4906447;29;20140;-68
2023/09/09 02:32:50;;;;;;;15.13;8.75;;;;;;;;;;4909212;29;20498;-64
2023/09/09 02:35:19;;;;;;;15.80;8.40;;;;;;;;;;4911248;29;20056;-74
2023/09/09 02:37:47;;;;;;;17.13;8.95;;;;;;;;;;4905772;29;20493;-66
2023/09/09 02:40:16;;;;;;;14.70;8.68;;;;;;;;;;4909637;29;20115;-68
2023/09/09 02:42:44;;;;;;;13.85;8.48;;;;;;;;;;4909559;29;20554;-69
2023/09/09 02:45:12;;;;;;;14.48;8.18;;;;;;;;;;4910438;29;20044;-73
2023/09/09 02:47:42;;;;;;;13.18;7.55;;;;;;;;;;4910490;29;20063;-67
2023/09/09 02:50:11;;;;;;;13.70;7.63;;;;;;;;;;4908478;29;20493;-64
2023/09/09 02:52:40;;;;;;;11.68;7.53;;;;;;;;;;4906456;29;20056;-66
2023/09/09 02:55:09;;;;;;;16.15;8.52;;;;;;;;;;4912826;29;20550;-66
2023/09/09 02:57:37;;;;;;;12.60;8.18;;;;;;;;;;4908174;29;20085;-69
2023/09/09 03:00:07;;;;;;;13.07;8.00;;;;;;;;;;4912305;29;20087;-69
2023/09/09 03:02:35;;;;;;;15.02;7.93;;;;;;;;;;4907302;29;20151;-68
2023/09/09 03:05:06;;;;;;;14.88;8.13;;;;;;;;;;4906302;29;20050;-67
2023/09/09 03:07:34;;;;;;;14.73;8.23;;;;;;;;;;4907260;29;20142;-71
2023/09/09 03:10:03;;;;;;;14.57;8.18;;;;;;;;;;4911224;29;20052;-68
2023/09/09 03:12:31;;;;;;;11.43;7.30;;;;;;;;;;4908555;29;20044;-72
2023/09/09 03:15:01;;;;;;;14.05;8.98;;;;;;;;;;4910969;29;20054;-65
2023/09/09 03:17:30;;;;;;;15.07;8.23;;;;;;;;;;4906814;29;20056;-69
2023/09/09 03:19:59;;;;;;;16.20;8.80;;;;;;;;;;4908836;29;20049;-68
2023/09/09 03:22:29;;;;;;;16.08;8.95;;;;;;;;;;4910832;29;20173;-66
2023/09/09 03:24:57;;;;;;;16.02;9.18;;;;;;;;;;4907051;29;20060;-64
2023/09/09 03:27:25;;;;;;;15.00;8.35;;;;;;;;;;4906279;29;20362;-68
2023/09/09 03:29:54;;;;;;;16.17;8.43;;;;;;;;;;4909283;29;20115;-64
2023/09/09 03:32:22;;;;;;;14.95;8.05;;;;;;;;;;4907146;29;20514;-64
2023/09/09 03:34:50;;;;;;;19.50;8.95;;;;;;;;;;4908914;29;20056;-76
2023/09/09 03:37:20;;;;;;;15.27;8.13;;;;;;;;;;4909939;29;20080;-69
2023/09/09 03:39:50;;;;;;;14.35;8.10;;;;;;;;;;4905819;29;20044;-72
2023/09/09 03:42:19;;;;;;;14.80;7.38;;;;;;;;;;4906441;29;20502;-66
2023/09/09 03:44:47;;;;;;;15.15;9.00;;;;;;;;;;4907824;29;20151;-65
2023/09/09 03:47:15;;;;;;;13.68;7.53;;;;;;;;;;4907600;29;20052;-68
2023/09/09 03:49:44;;;;;;;12.27;7.32;;;;;;;;;;4908050;29;20454;-66
2023/09/09 03:52:12;;;;;;;13.10;8.20;;;;;;;;;;4907393;29;20076;-65
2023/09/09 03:54:41;;;;;;;15.13;8.40;;;;;;;;;;4904176;29;20135;-64
2023/09/09 03:57:10;;;;;;;13.00;8.13;;;;;;;;;;4907353;29;20143;-66
2023/09/09 03:59:39;;;;;;;11.70;7.50;;;;;;;;;;4908125;29;20127;-66
2023/09/09 04:02:07;;;;;;;13.70;7.60;;;;;;;;;;4904441;29;20083;-65
2023/09/09 04:04:36;;;;;;;16.40;8.45;;;;;;;;;;4905650;29;20498;-66
2023/09/09 04:07:05;;;;;;;13.02;7.93;;;;;;;;;;4906783;29;20518;-64
2023/09/09 04:09:40;;;;;;;13.38;8.27;;;;;;;;;;4904067;29;20119;-66
2023/09/09 04:12:10;;;;;;;16.08;7.53;;;;;;;;;;4907665;29;20092;-67
2023/09/09 04:14:40;;;;;;;12.57;7.65;;;;;;;;;;4907288;29;20454;-68
2023/09/09 04:17:08;;;;;;;13.77;8.20;;;;;;;;;;4908644;29;20148;-63
2023/09/09 04:19:37;;;;;;;12.48;8.02;;;;;;;;;;4905044;29;20099;-73
2023/09/09 04:22:05;;;;;;;11.25;6.90;;;;;;;;;;4908010;29;20099;-66
2023/09/09 04:24:33;;;;;;;13.73;7.30;;;;;;;;;;4905352;29;20106;-70
2023/09/09 04:27:02;;;;;;;12.57;7.47;;;;;;;;;;4909687;29;20044;-65
2023/09/09 04:29:32;;;;;;;13.63;8.27;;;;;;;;;;4905355;29;20052;-67
2023/09/09 04:32:00;;;;;;;12.77;8.18;;;;;;;;;;4904363;29;20048;-66
2023/09/09 04:34:28;;;;;;;12.57;7.40;;;;;;;;;;4901825;29;20115;-67
2023/09/09 04:36:57;;;;;;;12.55;7.72;;;;;;;;;;4907122;29;20144;-69
2023/09/09 04:39:25;;;;;;;12.57;7.50;;;;;;;;;;4906787;29;20537;-67
2023/09/09 04:41:54;;;;;;;13.20;7.72;;;;;;;;;;4908347;29;20084;-65
2023/09/09 04:44:22;;;;;;;12.60;7.90;;;;;;;;;;4902152;29;20405;-64
2023/09/09 04:46:52;;;;;;;11.50;7.07;;;;;;;;;;4907838;29;20104;-64
2023/09/09 04:49:22;;;;;;;12.32;7.65;;;;;;;;;;4905958;29;20052;-68
2023/09/09 04:51:51;;;;;;;13.50;7.60;;;;;;;;;;4903458;29;20139;-67
2023/09/09 04:54:19;;;;;;;16.50;8.57;;;;;;;;;;4906875;29;20052;-67
2023/09/09 04:56:48;;;;;;;15.18;8.75;;;;;;;;;;4904964;29;20115;-65
2023/09/09 04:59:16;;;;;;;14.75;8.38;;;;;;;;;;4908964;29;20053;-70
2023/09/09 05:01:45;;;;;;;16.75;8.30;;;;;;;;;;4907571;29;22105;-69
2023/09/09 05:04:15;;;;;;;15.80;7.65;;;;;;;;;;4905350;29;20111;-71
2023/09/09 05:06:43;;;;;;;13.70;8.00;;;;;;;;;;4907553;29;20044;-74
2023/09/09 05:09:12;;;;;;;14.48;7.95;;;;;;;;;;4911147;29;20099;-65
2023/09/09 05:11:40;;;;;;;14.18;7.95;;;;;;;;;;4911917;29;20048;-64
2023/09/09 05:14:09;;;;;;;14.68;8.13;;;;;;;;;;4910195;29;20056;-67
2023/09/09 05:16:37;;;;;;;12.23;7.28;;;;;;;;;;4907830;29;20135;-68
2023/09/09 05:19:06;;;;;;;16.38;7.63;;;;;;;;;;4911008;29;20052;-66
2023/09/09 05:21:36;;;;;;;10.55;6.63;;;;;;;;;;4907359;29;20048;-66
2023/09/09 05:24:04;;;;;;;13.10;7.43;;;;;;;;;;4905387;29;20060;-69
2023/09/09 05:26:33;;;;;;;16.35;7.68;;;;;;;;;;4913487;29;20044;-64
2023/09/09 05:29:02;;;;;;;10.32;6.65;;;;;;;;;;4910739;29;20115;-64
2023/09/09 05:31:30;;;;;;;13.50;6.53;;;;;;;;;;4907761;29;20054;-68
2023/09/09 05:34:01;;;;;;;11.27;7.13;;;;;;;;;;4906385;29;20052;-71
2023/09/09 05:36:30;;;;;;;11.68;7.25;;;;;;;;;;4905394;29;20486;-66
2023/09/09 05:39:00;;;;;;;12.93;7.20;;;;;;;;;;4907796;29;20561;-68
2023/09/09 05:41:29;;;;;;;11.85;7.05;;;;;;;;;;4910289;29;20048;-68
2023/09/09 05:43:58;;;;;;;15.93;6.95;;;;;;;;;;4905433;29;20080;-65
2023/09/09 05:46:26;;;;;;;12.10;7.25;;;;;;;;;;4905776;29;20063;-64
2023/09/09 05:48:54;;;;;;;12.23;7.80;;;;;;;;;;4907154;29;20130;-66
2023/09/09 05:51:23;;;;;;;11.02;6.85;;;;;;;;;;4907005;29;20059;-68
2023/09/09 05:53:52;;;;;;;12.88;7.15;;;;;;;;;;4904422;29;20052;-67
2023/09/09 05:56:22;;;;;;;16.35;7.30;;;;;;;;;;4908319;29;20056;-73
2023/09/09 05:58:50;;;;;;;12.23;7.90;;;;;;;;;;4909995;29;20218;-71
2023/09/09 06:01:19;;;;;;;13.38;7.15;;;;;;;;;;4911019;29;20071;-66
2023/09/09 06:03:47;;;;;;;10.45;6.43;;;;;;;;;;4909054;29;20196;-68
2023/09/09 06:06:16;;;;;;;11.27;7.13;;;;;;;;;;4910045;29;20383;-69
2023/09/09 06:08:45;;;;;;;12.50;6.95;;;;;;;;;;4906591;29;20508;-66
2023/09/09 06:11:14;;;;;;;12.68;7.05;;;;;;;;;;4906464;29;20514;-67
2023/09/09 06:13:44;;;;;;;13.43;7.18;;;;;;;;;;4909819;29;20580;-64
2023/09/09 06:16:12;;;;;;;13.00;7.18;;;;;;;;;;4908616;29;20075;-66
2023/09/09 06:18:41;;;;;;;12.57;7.47;;;;;;;;;;4909001;29;20083;-73
2023/09/09 06:21:09;;;;;;;15.77;7.70;;;;;;;;;;4910300;29;20413;-65
2023/09/09 06:23:37;;;;;;;14.93;8.18;;;;;;;;;;4908184;29;20147;-68
2023/09/09 06:26:06;;;;;;;14.80;7.28;;;;;;;;;;4912387;29;20055;-68
2023/09/09 06:28:35;;;;;;;13.20;7.57;;;;;;;;;;4911979;29;20119;-66
2023/09/09 06:31:05;;;;;;;15.45;7.60;;;;;;;;;;4909211;29;20131;-66
2023/09/09 06:33:33;;;;;;;16.00;7.75;;;;;;;;;;4908476;29;20071;-68
2023/09/09 06:36:02;;;;;;;12.50;7.90;;;;;;;;;;4907070;29;20049;-68
2023/09/09 06:38:31;;;;;;;12.27;7.25;;;;;;;;;;4906320;29;20056;-70
2023/09/09 06:41:00;;;;;;;12.57;7.53;;;;;;;;;;4902868;29;20048;-64
2023/09/09 06:43:28;;;;;;;13.52;7.90;;;;;;;;;;4898700;29;20048;-70
2023/09/09 06:45:59;;;;;;;14.88;9.10;;;;;;;;;;4904458;29;20078;-70
2023/09/09 06:48:30;;;;;;;16.13;9.18;;;;;;;;;;4912114;29;20056;-70
2023/09/09 06:50:58;;;;;;;13.68;8.02;;;;;;;;;;4903340;29;20056;-70
2023/09/09 06:53:27;;;;;;;15.88;8.93;;;;;;;;;;4909167;29;20150;-67
2023/09/09 06:55:55;;;;;;;19.45;9.30;;;;;;;;;;4907346;29;20561;-65
2023/09/09 06:58:24;;;;;;;17.98;10.45;;;;;;;;;;4909626;29;20040;-68
2023/09/09 07:00:53;;;;;;;16.33;10.20;;;;;;;;;;4909133;29;20387;-65
2023/09/09 07:03:22;;;;;;;17.23;9.98;;;;;;;;;;4913082;29;20218;-66
2023/09/09 07:05:52;;;;;;;17.83;9.90;;;;;;;;;;4904412;29;20055;-69
2023/09/09 07:08:20;;;;;;;15.25;9.73;;;;;;;;;;4910845;29;20043;-69
2023/09/09 07:10:52;;;;;;;18.80;10.65;;;;;;;;;;4907763;29;20060;-67
2023/09/09 07:13:21;;;;;;;18.88;11.50;;;;;;;;;;4907858;29;20421;-77
2023/09/09 07:15:51;;;;;;;24.58;13.57;;;;;;;;;;4908070;29;20413;-64
2023/09/09 07:18:21;;;;;;;18.90;11.02;;;;;;;;;;4908891;29;20062;-76
2023/09/09 07:20:49;;;;;;;22.73;11.50;;;;;;;;;;4907180;29;20059;-65
2023/09/09 07:23:20;;;;;;;31.42;16.02;;;;;;;;;;4905943;29;20514;-70
2023/09/09 07:25:48;;;;;;;23.45;13.32;;;;;;;;;;4908059;29;20070;-65
2023/09/09 07:28:17;;;;;;;21.25;12.63;;;;;;;;;;4903954;29;20063;-65
2023/09/09 07:30:45;;;;;;;20.50;11.48;;;;;;;;;;4902296;29;20128;-69
2023/09/09 07:33:14;;;;;;;21.15;12.05;;;;;;;;;;4903257;29;20135;-73
2023/09/09 07:35:43;;;;;;;23.42;11.68;;;;;;;;;;4907349;29;21129;-65
2023/09/09 07:38:12;;;;;;;22.10;12.73;;;;;;;;;;4908575;29;20075;-67
2023/09/09 07:40:42;;;;;;;21.05;12.25;;;;;;;;;;4903783;29;20044;-68
2023/09/09 07:43:10;;;;;;;22.05;13.43;;;;;;;;;;4905488;29;20060;-68
2023/09/09 07:45:39;;;;;;;21.60;12.85;;;;;;;;;;4905433;29;20501;-75
2023/09/09 07:48:07;;;;;;;21.10;12.13;;;;;;;;;;4905858;29;20064;-65
2023/09/09 07:50:36;;;;;;;20.02;11.82;;;;;;;;;;4908651;29;20364;-64
2023/09/09 07:53:04;;;;;;;24.90;12.77;;;;;;;;;;4904322;29;20056;-64
2023/09/09 07:55:33;;;;;;;21.17;11.95;;;;;;;;;;4907283;29;20084;-70
2023/09/09 07:58:03;;;;;;;24.88;12.40;;;;;;;;;;4904485;29;20465;-67
2023/09/09 08:00:31;;;;;;;22.70;12.93;;;;;;;;;;4904288;29;20075;-68
2023/09/09 08:03:00;;;;;;;23.00;13.80;;;;;;;;;;4903837;29;20376;-66
2023/09/09 08:05:28;;;;;;;18.50;11.00;;;;;;;;;;4903929;29;20052;-70
2023/09/09 08:07:57;;;;;;;24.42;12.52;;;;;;;;;;4902652;29;20084;-66
2023/09/09 08:10:25;;;;;;;16.95;11.10;;;;;;;;;;4908589;29;20054;-67
2023/09/09 08:12:54;;;;;;;20.38;11.73;;;;;;;;;;4896609;29;20896;-65
2023/09/09 08:15:25;;;;;;;19.42;11.90;;;;;;;;;;4904957;29;20055;-61
2023/09/09 08:18:07;;;;;;;;;;;;;;;;;;4904308;29;20554;-61
2023/09/09 08:20:35;;;;;;;20.50;10.63;;;;;;;;;;4906344;29;19941;-67
2023/09/09 08:23:04;;;;;;;22.25;12.52;;;;;;;;;;4900021;29;20212;-65
2023/09/09 08:25:33;;;;;;;18.33;10.68;;;;;;;;;;4905591;29;20091;-67
2023/09/09 08:28:03;;;;;;;22.17;12.02;;;;;;;;;;4907272;29;20044;-62
2023/09/09 08:30:33;;;;;;;17.02;10.52;;;;;;;;;;4901226;29;20059;-71
2023/09/09 08:33:02;;;;;;;23.75;11.90;;;;;;;;;;4902871;29;20649;-65
2023/09/09 08:35:31;;;;;;;20.88;11.38;;;;;;;;;;4904930;29;20494;-64
2023/09/09 08:38:01;;;;;;;20.08;11.55;;;;;;;;;;4903820;29;20473;-64
2023/09/09 08:40:31;;;;;;;14.73;9.20;;;;;;;;;;4904419;29;20048;-63
2023/09/09 08:43:04;;;;;;;16.98;10.35;;;;;;;;;;4906068;29;20063;-66
2023/09/09 08:45:37;;;;;;;19.75;10.35;;;;;;;;;;4905505;29;20458;-63
2023/09/09 08:48:07;;;;;;;15.68;9.93;;;;;;;;;;4900524;29;20048;-64
2023/09/09 08:50:38;;;;;;;15.38;10.10;;;;;;;;;;4906440;29;20080;-64
2023/09/09 08:53:07;;;;;;;17.40;10.43;;;;;;;;;;4903198;29;20064;-64
2023/09/09 08:55:37;;;;;;;100.95;19.80;;;;;;;;;;4909896;29;20063;-68
2023/09/09 08:58:06;;;;;;;668.95;98.70;;;;;;;;;;4908343;29;20739;-65
2023/09/09 09:00:37;;;;;;;96.75;22.27;;;;;;;;;;4902488;29;20163;-69
2023/09/09 09:03:06;;;;;;;54.75;15.93;;;;;;;;;;4908295;29;20147;-65
2023/09/09 09:05:36;;;;;;;50.50;13.70;;;;;;;;;;4906454;29;20059;-67
2023/09/09 09:08:07;;;;;;;30.98;13.52;;;;;;;;;;4903526;29;20066;-69
2023/09/09 09:10:35;;;;;;;18.70;10.57;;;;;;;;;;4904559;29;20697;-67
2023/09/09 09:13:04;;;;;;;17.17;10.63;;;;;;;;;;4898271;29;20561;-68
2023/09/09 09:15:35;;;;;;;15.48;10.15;;;;;;;;;;4903080;29;20048;-65
2023/09/09 09:18:06;;;;;;;18.65;11.18;;;;;;;;;;4897072;29;20442;-73
2023/09/09 09:20:34;;;;;;;17.60;10.35;;;;;;;;;;4905977;29;20056;-67
2023/09/09 09:23:05;;;;;;;15.52;10.35;;;;;;;;;;4904124;29;20183;-65
2023/09/09 09:25:37;;;;;;;23.35;9.40;;;;;;;;;;4906659;29;20451;-66
2023/09/09 09:28:06;;;;;;;12.75;9.30;;;;;;;;;;4905812;29;21011;-64
2023/09/09 09:30:34;;;;;;;15.93;10.13;;;;;;;;;;4902846;29;20409;-67
2023/09/09 09:33:03;;;;;;;17.88;11.07;;;;;;;;;;4905828;29;20147;-76
2023/09/09 09:35:34;;;;;;;15.80;10.15;;;;;;;;;;4903803;29;20064;-66
2023/09/09 09:38:02;;;;;;;14.15;9.85;;;;;;;;;;4905864;29;20052;-68
2023/09/09 09:40:31;;;;;;;15.23;9.73;;;;;;;;;;4904245;29;20056;-64
2023/09/09 09:43:00;;;;;;;15.75;9.88;;;;;;;;;;4904775;29;20083;-71
2023/09/09 09:45:29;;;;;;;16.20;8.27;;;;;;;;;;4901972;29;20272;-77
2023/09/09 09:47:58;;;;;;;15.20;8.63;;;;;;;;;;4905121;29;20115;-65
2023/09/09 09:50:28;;;;;;;16.50;9.90;;;;;;;;;;4904370;29;20151;-65
2023/09/09 09:52:59;;;;;;;13.18;9.40;;;;;;;;;;4903312;29;20059;-68
2023/09/09 09:55:28;;;;;;;9.93;8.07;;;;;;;;;;4901424;29;20055;-67
2023/09/09 09:57:57;;;;;;;11.13;8.15;;;;;;;;;;4901225;29;20594;-68
2023/09/09 10:00:26;;;;;;;12.13;8.45;;;;;;;;;;4901877;29;20513;-70
2023/09/09 10:02:56;;;;;;;16.40;8.15;;;;;;;;;;4906183;29;20509;-65
2023/09/09 10:05:25;;;;;;;10.48;7.30;;;;;;;;;;4904072;29;20048;-68
2023/09/09 10:07:54;;;;;;;11.73;7.72;;;;;;;;;;4907475;29;20588;-64
2023/09/09 10:10:24;;;;;;;14.23;8.30;;;;;;;;;;4907051;29;20405;-65
2023/09/09 10:12:54;;;;;;;11.95;7.93;;;;;;;;;;4907419;29;20060;-65
2023/09/09 10:15:22;;;;;;;13.05;8.63;;;;;;;;;;4905511;29;20139;-66
2023/09/09 10:17:52;;;;;;;13.48;8.32;;;;;;;;;;4905135;29;20115;-73
2023/09/09 10:20:21;;;;;;;10.68;8.13;;;;;;;;;;4902102;29;20103;-67
2023/09/09 10:22:50;;;;;;;13.07;8.30;;;;;;;;;;4900085;29;20079;-67
2023/09/09 10:25:18;;;;;;;12.82;8.73;;;;;;;;;;4899779;29;20450;-70
2023/09/09 10:27:48;;;;;;;12.20;7.90;;;;;;;;;;4901431;29;20064;-64
2023/09/09 10:30:18;;;;;;;9.70;7.63;;;;;;;;;;4898102;29;20150;-71
2023/09/09 10:32:46;;;;;;;11.23;7.70;;;;;;;;;;4899346;29;20072;-72
2023/09/09 10:35:15;;;;;;;12.43;8.00;;;;;;;;;;4904783;29;20513;-68
2023/09/09 10:37:47;;;;;;;194.77;60.40;;;;;;;;;;4897367;29;20048;-68
2023/09/09 10:40:15;;;;;;;90.32;32.40;;;;;;;;;;4900897;29;20055;-66
2023/09/09 10:42:45;;;;;;;14.40;10.48;;;;;;;;;;4908513;29;20048;-66
2023/09/09 10:45:30;;;;;;;12.57;8.27;;;;;;;;;;4904945;29;20139;-65
2023/09/09 10:47:59;;;;;;;11.38;7.60;;;;;;;;;;4903802;29;20083;-68
2023/09/09 10:50:41;;;;;;;11.00;6.75;;;;;;;;;;4907191;29;20055;-73
2023/09/09 10:53:16;;;;;;;10.23;6.85;;;;;;;;;;4907583;29;20067;-71
2023/09/09 10:55:45;;;;;;;9.40;7.00;;;;;;;;;;4904942;29;20052;-71
2023/09/09 10:58:16;;;;;;;12.52;6.60;;;;;;;;;;4899183;29;20562;-66
2023/09/09 11:00:47;;;;;;;9.40;7.32;;;;;;;;;;4900239;29;20051;-68
2023/09/09 11:03:16;;;;;;;8.45;6.60;;;;;;;;;;4902461;29;20048;-64
2023/09/09 11:06:02;;;;;;;9.63;6.90;;;;;;;;;;4899505;29;20044;-69
2023/09/09 11:08:32;;;;;;;9.52;6.60;;;;;;;;;;4904943;29;20135;-78
2023/09/09 11:11:14;;;;;;;10.35;7.53;;;;;;;;;;4903113;29;20059;-69
2023/09/09 11:13:50;;;;;;;10.63;7.43;;;;;;;;;;4903848;29;20064;-68
2023/09/09 11:16:31;;;;;;;11.32;7.40;;;;;;;;;;4900594;29;20056;-72
2023/09/09 11:19:01;;;;;;;10.02;6.97;;;;;;;;;;4899429;29;20621;-66
2023/09/09 11:21:33;;;;;;;9.35;6.32;;;;;;;;;;4904039;29;20066;-64
2023/09/09 11:24:03;;;;;;;9.13;6.70;;;;;;;;;;4903911;29;20059;-66
2023/09/09 11:26:32;;;;;;;11.50;7.32;;;;;;;;;;4905974;29;20511;-69
2023/09/09 11:29:01;;;;;;;13.65;7.32;;;;;;;;;;4906411;29;20433;-76
2023/09/09 11:31:31;;;;;;;11.25;6.63;;;;;;;;;;4899839;29;20052;-68
2023/09/09 11:34:00;;;;;;;9.25;6.90;;;;;;;;;;4906256;29;20453;-63
2023/09/09 11:36:29;;;;;;;9.52;6.35;;;;;;;;;;4910183;29;20162;-66
2023/09/09 11:38:59;;;;;;;9.10;6.60;;;;;;;;;;4906412;29;20040;-68
2023/09/09 11:41:28;;;;;;;10.40;6.55;;;;;;;;;;4907032;29;20497;-64
2023/09/09 11:43:58;;;;;;;8.85;6.05;;;;;;;;;;4908510;29;20089;-65
2023/09/09 11:46:26;;;;;;;9.18;6.60;;;;;;;;;;4901045;29;20498;-64
2023/09/09 11:48:56;;;;;;;8.60;6.85;;;;;;;;;;4905693;29;20085;-74
2023/09/09 11:51:24;;;;;;;8.90;6.22;;;;;;;;;;4908428;29;20087;-65
2023/09/09 11:53:53;;;;;;;8.45;6.00;;;;;;;;;;4909226;29;20083;-64
2023/09/09 11:56:22;;;;;;;10.48;6.50;;;;;;;;;;4903945;29;20131;-65
2023/09/09 11:58:50;;;;;;;8.85;6.53;;;;;;;;;;4895892;29;20059;-75
2023/09/09 12:01:20;;;;;;;11.68;6.18;;;;;;;;;;4897987;29;20120;-70
2023/09/09 12:03:49;;;;;;;8.63;6.00;;;;;;;;;;4892893;29;20552;-73
2023/09/09 12:06:20;;;;;;;8.13;5.80;;;;;;;;;;4904142;29;20068;-68
2023/09/09 12:08:49;;;;;;;7.72;5.63;;;;;;;;;;4905444;29;20055;-68
2023/09/09 12:11:19;;;;;;;8.32;6.00;;;;;;;;;;4901354;29;20506;-65
2023/09/09 12:13:48;;;;;;;6.78;5.28;;;;;;;;;;4903548;29;20051;-76
2023/09/09 12:16:16;;;;;;;7.53;5.38;;;;;;;;;;4906324;29;20056;-65
2023/09/09 12:18:52;;;;;;;332.52;49.30;;;;;;;;;;4904273;29;20422;-66
2023/09/09 12:21:23;;;;;;;13.70;8.45;;;;;;;;;;4904989;29;20059;-71
2023/09/09 12:23:57;;;;;;;18.77;8.48;;;;;;;;;;4904746;29;20044;-67
2023/09/09 12:26:26;;;;;;;32.17;10.90;;;;;;;;;;4906206;29;20052;-69
2023/09/09 12:29:07;;;;;;;12.68;6.50;;;;;;;;;;4903159;29;20087;-69
2023/09/09 12:31:50;;;;;;;17.70;7.72;;;;;;;;;;4902062;29;20143;-68
2023/09/09 12:34:19;;;;;;;9.55;6.63;;;;;;;;;;4905829;29;20182;-75
2023/09/09 12:36:50;;;;;;;36.63;12.95;;;;;;;;;;4902301;29;20505;-78
2023/09/09 12:39:24;;;;;;;31.65;11.75;;;;;;;;;;4901196;29;20143;-80
2023/09/09 12:41:59;;;;;;;11.77;7.47;;;;;;;;;;4896320;29;20112;-71
2023/09/09 12:44:28;;;;;;;8.98;6.57;;;;;;;;;;4898151;29;20100;-70
2023/09/09 12:46:56;;;;;;;8.18;5.88;;;;;;;;;;4900734;29;21720;-69
2023/09/09 12:49:25;;;;;;;8.65;5.75;;;;;;;;;;4905897;29;20052;-73
2023/09/09 12:51:54;;;;;;;9.15;5.57;;;;;;;;;;4906975;29;20047;-74
2023/09/09 12:54:23;;;;;;;7.75;5.32;;;;;;;;;;4906158;29;20056;-72
2023/09/09 12:56:52;;;;;;;9.18;5.13;;;;;;;;;;4905748;29;20044;-67
2023/09/09 12:59:20;;;;;;;7.72;5.35;;;;;;;;;;4904769;29;20139;-74
2023/09/09 13:01:49;;;;;;;9.20;5.85;;;;;;;;;;4904198;29;20490;-75
2023/09/09 13:04:17;;;;;;;8.02;5.10;;;;;;;;;;4905898;29;20087;-76
2023/09/09 13:06:46;;;;;;;8.13;5.50;;;;;;;;;;4902847;29;20052;-71
2023/09/09 13:09:15;;;;;;;8.00;5.60;;;;;;;;;;4902103;29;20457;-68
2023/09/09 13:11:44;;;;;;;8.02;5.32;;;;;;;;;;4905534;29;20065;-71
2023/09/09 13:14:12;;;;;;;7.80;5.68;;;;;;;;;;4905390;29;20096;-84
2023/09/09 13:16:47;;;;;;;10.52;5.40;;;;;;;;;;4905327;29;20048;-85
2023/09/09 13:19:16;;;;;;;6.25;4.70;;;;;;;;;;4907439;29;20103;-72
2023/09/09 13:21:44;;;;;;;8.38;5.50;;;;;;;;;;4903493;29;20100;-77
2023/09/09 13:24:13;;;;;;;6.90;5.15;;;;;;;;;;4907848;29;20048;-68
2023/09/09 13:26:42;;;;;;;8.85;5.53;;;;;;;;;;4906330;29;20054;-68
2023/09/09 13:29:11;;;;;;;36.75;12.40;;;;;;;;;;4905642;29;20167;-71
2023/09/09 13:31:39;;;;;;;12.80;6.68;;;;;;;;;;4909427;29;20111;-72
2023/09/09 13:34:08;;;;;;;8.93;6.00;;;;;;;;;;4907889;29;20457;-68
2023/09/09 13:36:36;;;;;;;6.60;5.28;;;;;;;;;;4904339;29;20076;-70
2023/09/09 13:39:05;;;;;;;5.68;5.05;;;;;;;;;;4908388;29;20083;-71
2023/09/09 13:41:33;;;;;;;6.95;5.05;;;;;;;;;;4909226;29;20066;-74
2023/09/09 13:44:03;;;;;;;6.30;5.00;;;;;;;;;;4905826;29;20052;-69
2023/09/09 13:46:32;;;;;;;8.93;5.28;;;;;;;;;;4903739;29;20422;-74
2023/09/09 13:49:00;;;;;;;6.28;4.80;;;;;;;;;;4905953;29;20055;-72
2023/09/09 13:51:29;;;;;;;7.55;5.55;;;;;;;;;;4908164;29;20162;-75
2023/09/09 13:53:58;;;;;;;8.35;5.32;;;;;;;;;;4905036;29;20139;-72
2023/09/09 13:56:27;;;;;;;7.78;5.45;;;;;;;;;;4902360;29;20048;-74
2023/09/09 13:58:56;;;;;;;7.43;5.10;;;;;;;;;;4906675;29;20486;-67
2023/09/09 14:01:26;;;;;;;11.43;5.25;;;;;;;;;;4907664;29;20063;-69
2023/09/09 14:03:55;;;;;;;9.27;4.78;;;;;;;;;;4906373;29;20071;-68
2023/09/09 14:06:24;;;;;;;7.70;5.07;;;;;;;;;;4907626;29;20080;-75
2023/09/09 14:08:52;;;;;;;6.38;5.20;;;;;;;;;;4907772;29;20051;-68
2023/09/09 14:11:20;;;;;;;7.30;5.22;;;;;;;;;;4908837;29;20055;-71
2023/09/09 14:13:49;;;;;;;7.53;5.75;;;;;;;;;;4909164;29;20459;-68
2023/09/09 14:16:17;;;;;;;5.88;5.05;;;;;;;;;;4907218;29;20494;-67
2023/09/09 14:18:47;;;;;;;6.78;5.70;;;;;;;;;;4900996;29;20147;-78
2023/09/09 14:21:17;;;;;;;7.38;5.20;;;;;;;;;;4905059;29;20055;-74
2023/09/09 14:23:45;;;;;;;6.30;5.10;;;;;;;;;;4909824;29;20087;-71
2023/09/09 14:26:16;;;;;;;7.80;5.45;;;;;;;;;;4906382;29;20122;-73
2023/09/09 14:28:45;;;;;;;7.43;5.15;;;;;;;;;;4904049;29;20048;-78
2023/09/09 14:31:13;;;;;;;5.90;4.80;;;;;;;;;;4906659;29;20080;-74
2023/09/09 14:33:42;;;;;;;8.57;5.60;;;;;;;;;;4904366;29;20626;-70
2023/09/09 14:36:11;;;;;;;7.72;5.78;;;;;;;;;;4904491;29;20075;-74
2023/09/09 14:38:40;;;;;;;6.80;5.05;;;;;;;;;;4906985;29;20244;-66
2023/09/09 14:41:08;;;;;;;8.52;5.50;;;;;;;;;;4905239;29;20063;-72
2023/09/09 14:43:37;;;;;;;6.00;4.45;;;;;;;;;;4903389;29;20471;-72
2023/09/09 14:46:05;;;;;;;6.68;4.95;;;;;;;;;;4903121;29;20107;-73
2023/09/09 14:48:35;;;;;;;7.50;5.07;;;;;;;;;;4906577;29;20533;-67